GFTO weather

Tongo Airport
Tongo, Eastern Province, Sierra Leone

Public forecast

Using degrees Celsius for public forecast. Weather courtesy of forecast.io.

METAR (pilot weather report)

Closest report is Roberts International Airport, 126.3 nm (233.8 km) SSE. Retrieved 2019/05/21 01:00 UTC (57 minutes ago):

GLRB 210100Z 00000KT 9999 BKN014 FEW024CB 25/24 Q1013 RMK CB-N/NE/SW

TAF (pilot weather forecast)

Forecast is more than 12 hours old.

Closest forecast is Roberts International Airport, 126.3 nm (233.8 km) SSE. Retrieved 2019/05/20 00:51 UTC (1 day ago):

TAF TAF GLRB 202200Z 2100/2206 06005KT 9000 BKN013 FEW024CB TEMPO 2100/2104 04006KT 8000 TSRA BKN011 FEW022CB BECMG 2105/2107 00000KT BKN012 FEW023CB